sensor_id;sensor_type;location;lat;lon;timestamp;P1;durP1;ratioP1;P2;durP2;ratioP2
43835;SDS011;39345;43.964;25.340;2023-02-15T00:00:05;33.67;;;18.30;;
43835;SDS011;39345;43.964;25.340;2023-02-15T00:02:37;37.20;;;17.40;;
43835;SDS011;39345;43.964;25.340;2023-02-15T00:05:04;35.08;;;18.45;;
43835;SDS011;39345;43.964;25.340;2023-02-15T00:07:32;34.35;;;18.55;;
43835;SDS011;39345;43.964;25.340;2023-02-15T00:09:59;35.67;;;17.50;;
43835;SDS011;39345;43.964;25.340;2023-02-15T00:12:27;31.10;;;16.42;;
43835;SDS011;39345;43.964;25.340;2023-02-15T00:14:54;28.27;;;16.10;;
43835;SDS011;39345;43.964;25.340;2023-02-15T00:17:21;30.88;;;17.23;;
43835;SDS011;39345;43.964;25.340;2023-02-15T00:19:49;31.48;;;17.30;;
43835;SDS011;39345;43.964;25.340;2023-02-15T00:22:17;30.52;;;17.17;;
43835;SDS011;39345;43.964;25.340;2023-02-15T00:24:44;30.40;;;16.83;;
43835;SDS011;39345;43.964;25.340;2023-02-15T00:27:11;31.73;;;16.85;;
43835;SDS011;39345;43.964;25.340;2023-02-15T00:29:39;32.95;;;17.75;;
43835;SDS011;39345;43.964;25.340;2023-02-15T00:32:06;30.60;;;16.75;;
43835;SDS011;39345;43.964;25.340;2023-02-15T00:34:34;28.48;;;16.08;;
43835;SDS011;39345;43.964;25.340;2023-02-15T00:37:01;31.85;;;16.52;;
43835;SDS011;39345;43.964;25.340;2023-02-15T00:39:29;32.60;;;16.95;;
43835;SDS011;39345;43.964;25.340;2023-02-15T00:41:57;32.17;;;17.17;;
43835;SDS011;39345;43.964;25.340;2023-02-15T00:44:25;35.80;;;19.70;;
43835;SDS011;39345;43.964;25.340;2023-02-15T00:46:55;31.25;;;17.42;;
43835;SDS011;39345;43.964;25.340;2023-02-15T00:49:22;35.33;;;17.60;;
43835;SDS011;39345;43.964;25.340;2023-02-15T00:51:50;32.40;;;16.95;;
43835;SDS011;39345;43.964;25.340;2023-02-15T00:54:17;32.15;;;17.13;;
43835;SDS011;39345;43.964;25.340;2023-02-15T00:56:45;33.47;;;16.67;;
43835;SDS011;39345;43.964;25.340;2023-02-15T00:59:12;30.48;;;18.08;;
43835;SDS011;39345;43.964;25.340;2023-02-15T01:01:40;31.20;;;17.58;;
43835;SDS011;39345;43.964;25.340;2023-02-15T01:04:07;31.00;;;17.77;;
43835;SDS011;39345;43.964;25.340;2023-02-15T01:06:35;31.83;;;17.75;;
43835;SDS011;39345;43.964;25.340;2023-02-15T01:09:02;34.30;;;17.38;;
43835;SDS011;39345;43.964;25.340;2023-02-15T01:11:30;34.78;;;17.17;;
43835;SDS011;39345;43.964;25.340;2023-02-15T01:13:57;33.90;;;16.67;;
43835;SDS011;39345;43.964;25.340;2023-02-15T01:16:26;29.73;;;16.80;;
43835;SDS011;39345;43.964;25.340;2023-02-15T01:18:54;31.08;;;16.33;;
43835;SDS011;39345;43.964;25.340;2023-02-15T01:21:23;31.40;;;17.10;;
43835;SDS011;39345;43.964;25.340;2023-02-15T01:23:50;30.75;;;16.05;;
43835;SDS011;39345;43.964;25.340;2023-02-15T01:26:18;33.00;;;16.38;;
43835;SDS011;39345;43.964;25.340;2023-02-15T01:28:45;29.15;;;16.00;;
43835;SDS011;39345;43.964;25.340;2023-02-15T01:31:15;29.83;;;17.02;;
43835;SDS011;39345;43.964;25.340;2023-02-15T01:33:44;31.75;;;16.42;;
43835;SDS011;39345;43.964;25.340;2023-02-15T01:36:12;27.70;;;16.52;;
43835;SDS011;39345;43.964;25.340;2023-02-15T01:38:40;34.72;;;18.30;;
43835;SDS011;39345;43.964;25.340;2023-02-15T01:41:08;31.77;;;17.17;;
43835;SDS011;39345;43.964;25.340;2023-02-15T01:43:57;33.47;;;16.67;;
43835;SDS011;39345;43.964;25.340;2023-02-15T01:49:03;33.58;;;16.85;;
43835;SDS011;39345;43.964;25.340;2023-02-15T01:51:34;32.55;;;17.13;;
43835;SDS011;39345;43.964;25.340;2023-02-15T01:54:11;33.22;;;17.90;;
43835;SDS011;39345;43.964;25.340;2023-02-15T01:56:41;31.35;;;17.65;;
43835;SDS011;39345;43.964;25.340;2023-02-15T01:59:09;32.75;;;18.08;;
43835;SDS011;39345;43.964;25.340;2023-02-15T02:01:38;34.00;;;18.83;;
43835;SDS011;39345;43.964;25.340;2023-02-15T02:06:36;33.97;;;18.65;;
43835;SDS011;39345;43.964;25.340;2023-02-15T02:09:05;34.50;;;18.27;;
43835;SDS011;39345;43.964;25.340;2023-02-15T02:11:32;36.30;;;18.45;;
43835;SDS011;39345;43.964;25.340;2023-02-15T02:14:01;35.85;;;17.90;;
43835;SDS011;39345;43.964;25.340;2023-02-15T02:38:04;50.90;;;27.05;;
43835;SDS011;39345;43.964;25.340;2023-02-15T02:43:35;55.03;;;27.20;;
43835;SDS011;39345;43.964;25.340;2023-02-15T02:48:41;56.33;;;27.92;;
43835;SDS011;39345;43.964;25.340;2023-02-15T02:51:11;53.00;;;27.65;;
43835;SDS011;39345;43.964;25.340;2023-02-15T02:53:41;53.63;;;27.88;;
43835;SDS011;39345;43.964;25.340;2023-02-15T02:56:29;53.47;;;27.25;;
43835;SDS011;39345;43.964;25.340;2023-02-15T03:01:38;56.13;;;27.40;;
43835;SDS011;39345;43.964;25.340;2023-02-15T03:04:09;59.88;;;28.98;;
43835;SDS011;39345;43.964;25.340;2023-02-15T03:09:14;56.33;;;28.38;;
43835;SDS011;39345;43.964;25.340;2023-02-15T03:11:43;40.70;;;20.95;;
43835;SDS011;39345;43.964;25.340;2023-02-15T03:14:13;39.88;;;21.52;;
43835;SDS011;39345;43.964;25.340;2023-02-15T03:16:42;40.30;;;20.90;;
43835;SDS011;39345;43.964;25.340;2023-02-15T03:19:16;46.13;;;24.17;;
43835;SDS011;39345;43.964;25.340;2023-02-15T03:21:48;41.75;;;22.25;;
43835;SDS011;39345;43.964;25.340;2023-02-15T03:24:28;44.45;;;21.98;;
43835;SDS011;39345;43.964;25.340;2023-02-15T03:26:57;44.30;;;23.35;;
43835;SDS011;39345;43.964;25.340;2023-02-15T03:29:25;40.42;;;21.58;;
43835;SDS011;39345;43.964;25.340;2023-02-15T03:31:56;43.38;;;21.65;;
43835;SDS011;39345;43.964;25.340;2023-02-15T03:34:25;43.08;;;21.00;;
43835;SDS011;39345;43.964;25.340;2023-02-15T03:36:56;41.53;;;20.20;;
43835;SDS011;39345;43.964;25.340;2023-02-15T03:42:05;38.70;;;19.92;;
43835;SDS011;39345;43.964;25.340;2023-02-15T03:44:38;41.53;;;20.05;;
43835;SDS011;39345;43.964;25.340;2023-02-15T03:47:11;36.15;;;19.17;;
43835;SDS011;39345;43.964;25.340;2023-02-15T03:49:43;36.65;;;19.08;;
43835;SDS011;39345;43.964;25.340;2023-02-15T03:52:12;38.55;;;20.77;;
43835;SDS011;39345;43.964;25.340;2023-02-15T03:54:41;38.92;;;20.10;;
43835;SDS011;39345;43.964;25.340;2023-02-15T03:57:13;37.03;;;20.20;;
43835;SDS011;39345;43.964;25.340;2023-02-15T04:00:00;44.95;;;21.55;;
43835;SDS011;39345;43.964;25.340;2023-02-15T04:05:17;39.03;;;21.10;;
43835;SDS011;39345;43.964;25.340;2023-02-15T04:07:44;38.63;;;20.70;;
43835;SDS011;39345;43.964;25.340;2023-02-15T04:10:12;39.78;;;20.63;;
43835;SDS011;39345;43.964;25.340;2023-02-15T04:12:58;44.20;;;22.42;;
43835;SDS011;39345;43.964;25.340;2023-02-15T04:15:25;44.50;;;23.58;;
43835;SDS011;39345;43.964;25.340;2023-02-15T04:18:11;44.30;;;23.02;;
43835;SDS011;39345;43.964;25.340;2023-02-15T04:20:40;49.38;;;24.17;;
43835;SDS011;39345;43.964;25.340;2023-02-15T04:23:28;45.00;;;22.52;;
43835;SDS011;39345;43.964;25.340;2023-02-15T04:26:15;46.22;;;22.88;;
43835;SDS011;39345;43.964;25.340;2023-02-15T04:28:42;48.33;;;23.55;;
43835;SDS011;39345;43.964;25.340;2023-02-15T04:31:10;51.17;;;23.10;;
43835;SDS011;39345;43.964;25.340;2023-02-15T04:33:37;48.05;;;23.20;;
43835;SDS011;39345;43.964;25.340;2023-02-15T04:36:05;42.22;;;22.63;;
43835;SDS011;39345;43.964;25.340;2023-02-15T04:38:32;45.75;;;23.65;;
43835;SDS011;39345;43.964;25.340;2023-02-15T04:41:00;45.45;;;23.58;;
43835;SDS011;39345;43.964;25.340;2023-02-15T04:43:27;70.15;;;32.25;;
43835;SDS011;39345;43.964;25.340;2023-02-15T04:45:54;49.47;;;25.23;;
43835;SDS011;39345;43.964;25.340;2023-02-15T04:48:22;58.10;;;28.33;;
43835;SDS011;39345;43.964;25.340;2023-02-15T04:50:50;65.18;;;32.22;;
43835;SDS011;39345;43.964;25.340;2023-02-15T04:53:17;63.72;;;30.65;;
43835;SDS011;39345;43.964;25.340;2023-02-15T04:55:44;75.13;;;34.67;;
43835;SDS011;39345;43.964;25.340;2023-02-15T04:58:12;70.45;;;33.10;;
43835;SDS011;39345;43.964;25.340;2023-02-15T05:00:39;76.93;;;34.67;;
43835;SDS011;39345;43.964;25.340;2023-02-15T05:03:07;72.22;;;33.35;;
43835;SDS011;39345;43.964;25.340;2023-02-15T05:05:34;65.50;;;32.05;;
43835;SDS011;39345;43.964;25.340;2023-02-15T05:08:01;78.35;;;34.78;;
43835;SDS011;39345;43.964;25.340;2023-02-15T05:10:29;88.25;;;41.08;;
43835;SDS011;39345;43.964;25.340;2023-02-15T05:12:56;82.22;;;38.63;;
43835;SDS011;39345;43.964;25.340;2023-02-15T05:15:24;84.70;;;39.42;;
43835;SDS011;39345;43.964;25.340;2023-02-15T05:17:51;76.20;;;38.55;;
43835;SDS011;39345;43.964;25.340;2023-02-15T05:20:19;90.45;;;42.00;;
43835;SDS011;39345;43.964;25.340;2023-02-15T05:22:46;81.13;;;40.00;;
43835;SDS011;39345;43.964;25.340;2023-02-15T05:25:14;79.05;;;36.83;;
43835;SDS011;39345;43.964;25.340;2023-02-15T05:28:00;71.50;;;37.13;;
43835;SDS011;39345;43.964;25.340;2023-02-15T05:30:49;75.22;;;36.70;;
43835;SDS011;39345;43.964;25.340;2023-02-15T05:33:17;77.13;;;37.15;;
43835;SDS011;39345;43.964;25.340;2023-02-15T05:35:45;80.68;;;38.00;;
43835;SDS011;39345;43.964;25.340;2023-02-15T05:38:12;78.15;;;37.80;;
43835;SDS011;39345;43.964;25.340;2023-02-15T05:40:39;77.15;;;37.08;;
43835;SDS011;39345;43.964;25.340;2023-02-15T05:43:07;78.18;;;38.63;;
43835;SDS011;39345;43.964;25.340;2023-02-15T05:45:34;77.22;;;36.10;;
43835;SDS011;39345;43.964;25.340;2023-02-15T05:48:02;77.75;;;37.15;;
43835;SDS011;39345;43.964;25.340;2023-02-15T05:50:29;74.25;;;35.95;;
43835;SDS011;39345;43.964;25.340;2023-02-15T05:52:58;73.78;;;35.10;;
43835;SDS011;39345;43.964;25.340;2023-02-15T05:55:26;63.97;;;33.53;;
43835;SDS011;39345;43.964;25.340;2023-02-15T05:57:53;79.38;;;39.42;;
43835;SDS011;39345;43.964;25.340;2023-02-15T06:00:20;101.93;;;45.15;;
43835;SDS011;39345;43.964;25.340;2023-02-15T06:02:48;107.60;;;50.05;;
43835;SDS011;39345;43.964;25.340;2023-02-15T06:05:16;127.13;;;55.22;;
43835;SDS011;39345;43.964;25.340;2023-02-15T06:07:43;118.57;;;53.20;;
43835;SDS011;39345;43.964;25.340;2023-02-15T06:10:11;128.77;;;55.75;;
43835;SDS011;39345;43.964;25.340;2023-02-15T06:12:38;108.90;;;53.38;;
43835;SDS011;39345;43.964;25.340;2023-02-15T06:15:06;95.13;;;45.00;;
43835;SDS011;39345;43.964;25.340;2023-02-15T06:17:33;90.88;;;50.70;;
43835;SDS011;39345;43.964;25.340;2023-02-15T06:20:01;82.85;;;46.28;;
43835;SDS011;39345;43.964;25.340;2023-02-15T06:22:29;65.70;;;35.42;;
43835;SDS011;39345;43.964;25.340;2023-02-15T06:24:56;57.22;;;31.73;;
43835;SDS011;39345;43.964;25.340;2023-02-15T06:27:23;83.65;;;47.60;;
43835;SDS011;39345;43.964;25.340;2023-02-15T06:29:51;67.57;;;39.53;;
43835;SDS011;39345;43.964;25.340;2023-02-15T06:32:18;50.58;;;28.73;;
43835;SDS011;39345;43.964;25.340;2023-02-15T06:34:46;79.85;;;48.15;;
43835;SDS011;39345;43.964;25.340;2023-02-15T06:37:14;85.72;;;48.22;;
43835;SDS011;39345;43.964;25.340;2023-02-15T06:39:41;60.50;;;36.63;;
43835;SDS011;39345;43.964;25.340;2023-02-15T06:42:10;57.85;;;34.45;;
43835;SDS011;39345;43.964;25.340;2023-02-15T06:44:37;50.63;;;31.35;;
43835;SDS011;39345;43.964;25.340;2023-02-15T06:47:05;51.08;;;30.75;;
43835;SDS011;39345;43.964;25.340;2023-02-15T06:49:32;44.72;;;28.33;;
43835;SDS011;39345;43.964;25.340;2023-02-15T06:52:00;43.20;;;29.67;;
43835;SDS011;39345;43.964;25.340;2023-02-15T06:54:27;44.85;;;28.95;;
43835;SDS011;39345;43.964;25.340;2023-02-15T06:56:54;43.30;;;28.30;;
43835;SDS011;39345;43.964;25.340;2023-02-15T06:59:22;44.45;;;29.33;;
43835;SDS011;39345;43.964;25.340;2023-02-15T07:01:49;40.67;;;28.38;;
43835;SDS011;39345;43.964;25.340;2023-02-15T07:04:17;36.40;;;27.73;;
43835;SDS011;39345;43.964;25.340;2023-02-15T07:06:44;29.25;;;21.92;;
43835;SDS011;39345;43.964;25.340;2023-02-15T07:09:12;30.02;;;21.90;;
43835;SDS011;39345;43.964;25.340;2023-02-15T07:11:39;26.63;;;20.40;;
43835;SDS011;39345;43.964;25.340;2023-02-15T07:14:27;28.63;;;20.17;;
43835;SDS011;39345;43.964;25.340;2023-02-15T07:16:54;31.75;;;21.02;;
43835;SDS011;39345;43.964;25.340;2023-02-15T07:19:22;33.08;;;20.65;;
43835;SDS011;39345;43.964;25.340;2023-02-15T07:21:49;32.92;;;20.33;;
43835;SDS011;39345;43.964;25.340;2023-02-15T07:24:17;30.48;;;19.15;;
43835;SDS011;39345;43.964;25.340;2023-02-15T07:26:44;30.38;;;18.70;;
43835;SDS011;39345;43.964;25.340;2023-02-15T07:29:11;30.63;;;18.42;;
43835;SDS011;39345;43.964;25.340;2023-02-15T07:31:39;32.67;;;18.50;;
43835;SDS011;39345;43.964;25.340;2023-02-15T07:34:06;35.35;;;18.35;;
43835;SDS011;39345;43.964;25.340;2023-02-15T07:36:34;33.38;;;19.33;;
43835;SDS011;39345;43.964;25.340;2023-02-15T07:39:01;33.60;;;19.30;;
43835;SDS011;39345;43.964;25.340;2023-02-15T07:41:29;34.00;;;19.85;;
43835;SDS011;39345;43.964;25.340;2023-02-15T07:43:56;33.85;;;19.25;;
43835;SDS011;39345;43.964;25.340;2023-02-15T07:46:24;33.22;;;19.27;;
43835;SDS011;39345;43.964;25.340;2023-02-15T07:48:51;31.10;;;18.58;;
43835;SDS011;39345;43.964;25.340;2023-02-15T07:51:19;31.15;;;18.58;;
43835;SDS011;39345;43.964;25.340;2023-02-15T07:53:46;30.85;;;18.75;;
43835;SDS011;39345;43.964;25.340;2023-02-15T07:56:14;34.58;;;19.38;;
43835;SDS011;39345;43.964;25.340;2023-02-15T07:58:42;33.70;;;19.60;;
43835;SDS011;39345;43.964;25.340;2023-02-15T08:01:19;31.77;;;19.38;;
43835;SDS011;39345;43.964;25.340;2023-02-15T08:03:47;35.80;;;18.85;;
43835;SDS011;39345;43.964;25.340;2023-02-15T08:06:16;33.47;;;19.35;;
43835;SDS011;39345;43.964;25.340;2023-02-15T08:08:43;33.85;;;19.05;;
43835;SDS011;39345;43.964;25.340;2023-02-15T08:18:56;31.75;;;18.70;;
43835;SDS011;39345;43.964;25.340;2023-02-15T08:21:25;32.88;;;19.05;;
43835;SDS011;39345;43.964;25.340;2023-02-15T08:23:53;32.72;;;19.27;;
43835;SDS011;39345;43.964;25.340;2023-02-15T08:26:21;30.67;;;19.45;;
43835;SDS011;39345;43.964;25.340;2023-02-15T08:28:49;36.85;;;18.38;;
43835;SDS011;39345;43.964;25.340;2023-02-15T08:31:17;32.85;;;19.33;;
43835;SDS011;39345;43.964;25.340;2023-02-15T08:33:45;32.08;;;19.35;;
43835;SDS011;39345;43.964;25.340;2023-02-15T08:36:15;35.00;;;20.80;;
43835;SDS011;39345;43.964;25.340;2023-02-15T08:38:43;37.03;;;20.45;;
43835;SDS011;39345;43.964;25.340;2023-02-15T08:41:17;35.65;;;20.30;;
43835;SDS011;39345;43.964;25.340;2023-02-15T08:43:46;30.20;;;19.05;;
43835;SDS011;39345;43.964;25.340;2023-02-15T08:46:14;32.42;;;18.60;;
43835;SDS011;39345;43.964;25.340;2023-02-15T08:48:42;32.03;;;20.00;;
43835;SDS011;39345;43.964;25.340;2023-02-15T08:51:20;35.95;;;22.05;;
43835;SDS011;39345;43.964;25.340;2023-02-15T08:53:48;33.05;;;19.83;;
43835;SDS011;39345;43.964;25.340;2023-02-15T08:56:17;30.85;;;19.60;;
43835;SDS011;39345;43.964;25.340;2023-02-15T08:58:45;29.95;;;19.40;;
43835;SDS011;39345;43.964;25.340;2023-02-15T09:01:14;34.20;;;19.70;;
43835;SDS011;39345;43.964;25.340;2023-02-15T09:03:47;30.60;;;19.20;;
43835;SDS011;39345;43.964;25.340;2023-02-15T09:06:18;33.83;;;19.13;;
43835;SDS011;39345;43.964;25.340;2023-02-15T09:08:46;28.75;;;18.75;;
43835;SDS011;39345;43.964;25.340;2023-02-15T09:11:15;30.08;;;19.15;;
43835;SDS011;39345;43.964;25.340;2023-02-15T09:13:52;31.92;;;20.30;;
43835;SDS011;39345;43.964;25.340;2023-02-15T09:16:20;31.45;;;19.02;;
43835;SDS011;39345;43.964;25.340;2023-02-15T09:18:49;30.58;;;18.52;;
43835;SDS011;39345;43.964;25.340;2023-02-15T09:21:21;26.85;;;17.75;;
43835;SDS011;39345;43.964;25.340;2023-02-15T09:23:50;30.00;;;19.02;;
43835;SDS011;39345;43.964;25.340;2023-02-15T09:26:19;30.60;;;19.45;;
43835;SDS011;39345;43.964;25.340;2023-02-15T09:28:47;27.92;;;18.00;;
43835;SDS011;39345;43.964;25.340;2023-02-15T09:31:19;28.38;;;17.73;;
43835;SDS011;39345;43.964;25.340;2023-02-15T09:33:47;28.95;;;18.02;;
43835;SDS011;39345;43.964;25.340;2023-02-15T09:38:44;25.02;;;16.77;;
43835;SDS011;39345;43.964;25.340;2023-02-15T09:54:29;25.27;;;16.35;;
43835;SDS011;39345;43.964;25.340;2023-02-15T09:56:58;27.17;;;15.65;;
43835;SDS011;39345;43.964;25.340;2023-02-15T10:09:35;28.30;;;15.18;;
43835;SDS011;39345;43.964;25.340;2023-02-15T10:20:08;22.23;;;14.93;;
43835;SDS011;39345;43.964;25.340;2023-02-15T10:27:45;24.58;;;14.38;;
43835;SDS011;39345;43.964;25.340;2023-02-15T10:31:00;23.85;;;15.18;;
43835;SDS011;39345;43.964;25.340;2023-02-15T10:33:49;20.85;;;14.07;;
43835;SDS011;39345;43.964;25.340;2023-02-15T10:36:01;22.08;;;14.80;;
43835;SDS011;39345;43.964;25.340;2023-02-15T10:38:42;22.85;;;14.15;;
43835;SDS011;39345;43.964;25.340;2023-02-15T10:51:12;23.42;;;14.90;;
43835;SDS011;39345;43.964;25.340;2023-02-15T10:53:51;23.42;;;16.05;;
43835;SDS011;39345;43.964;25.340;2023-02-15T11:04:45;23.42;;;14.75;;
43835;SDS011;39345;43.964;25.340;2023-02-15T11:07:16;22.33;;;14.35;;
43835;SDS011;39345;43.964;25.340;2023-02-15T11:09:53;24.30;;;15.35;;
43835;SDS011;39345;43.964;25.340;2023-02-15T11:12:24;24.13;;;14.55;;
43835;SDS011;39345;43.964;25.340;2023-02-15T11:17:25;24.90;;;15.82;;
43835;SDS011;39345;43.964;25.340;2023-02-15T11:20:02;25.20;;;15.70;;
43835;SDS011;39345;43.964;25.340;2023-02-15T11:22:32;24.67;;;15.70;;
43835;SDS011;39345;43.964;25.340;2023-02-15T11:25:01;21.38;;;14.40;;
43835;SDS011;39345;43.964;25.340;2023-02-15T11:27:32;24.35;;;16.05;;
43835;SDS011;39345;43.964;25.340;2023-02-15T11:30:09;24.30;;;16.10;;
43835;SDS011;39345;43.964;25.340;2023-02-15T11:32:43;23.52;;;14.60;;
43835;SDS011;39345;43.964;25.340;2023-02-15T11:42:46;24.42;;;15.13;;
43835;SDS011;39345;43.964;25.340;2023-02-15T11:47:51;26.70;;;16.75;;
43835;SDS011;39345;43.964;25.340;2023-02-15T11:50:23;28.33;;;16.65;;
43835;SDS011;39345;43.964;25.340;2023-02-15T11:52:51;21.13;;;13.68;;
43835;SDS011;39345;43.964;25.340;2023-02-15T11:55:20;23.77;;;13.50;;
43835;SDS011;39345;43.964;25.340;2023-02-15T12:00:36;22.67;;;14.00;;
43835;SDS011;39345;43.964;25.340;2023-02-15T12:03:48;21.80;;;14.60;;
43835;SDS011;39345;43.964;25.340;2023-02-15T12:05:57;22.05;;;13.98;;
43835;SDS011;39345;43.964;25.340;2023-02-15T12:08:25;23.30;;;14.63;;
43835;SDS011;39345;43.964;25.340;2023-02-15T12:11:06;20.13;;;12.60;;
43835;SDS011;39345;43.964;25.340;2023-02-15T12:13:58;18.60;;;13.10;;
43835;SDS011;39345;43.964;25.340;2023-02-15T12:16:26;21.85;;;13.02;;
43835;SDS011;39345;43.964;25.340;2023-02-15T12:18:56;19.83;;;12.00;;
43835;SDS011;39345;43.964;25.340;2023-02-15T12:21:25;18.00;;;12.00;;
43835;SDS011;39345;43.964;25.340;2023-02-15T12:23:55;21.13;;;12.50;;
43835;SDS011;39345;43.964;25.340;2023-02-15T12:26:34;19.83;;;11.23;;
43835;SDS011;39345;43.964;25.340;2023-02-15T12:29:06;18.33;;;11.10;;
43835;SDS011;39345;43.964;25.340;2023-02-15T12:31:36;21.10;;;12.43;;
43835;SDS011;39345;43.964;25.340;2023-02-15T12:34:09;26.17;;;13.20;;
43835;SDS011;39345;43.964;25.340;2023-02-15T12:36:43;24.55;;;12.73;;
43835;SDS011;39345;43.964;25.340;2023-02-15T12:50:37;18.63;;;11.93;;
43835;SDS011;39345;43.964;25.340;2023-02-15T12:52:46;20.73;;;12.15;;
43835;SDS011;39345;43.964;25.340;2023-02-15T12:57:45;21.33;;;13.32;;
43835;SDS011;39345;43.964;25.340;2023-02-15T13:02:50;21.20;;;12.07;;
43835;SDS011;39345;43.964;25.340;2023-02-15T13:05:32;19.98;;;11.85;;
43835;SDS011;39345;43.964;25.340;2023-02-15T13:08:08;19.58;;;12.32;;
43835;SDS011;39345;43.964;25.340;2023-02-15T13:10:39;18.55;;;11.05;;
43835;SDS011;39345;43.964;25.340;2023-02-15T13:13:10;19.92;;;11.73;;
43835;SDS011;39345;43.964;25.340;2023-02-15T13:15:39;18.05;;;11.20;;
43835;SDS011;39345;43.964;25.340;2023-02-15T13:18:10;20.63;;;11.93;;
43835;SDS011;39345;43.964;25.340;2023-02-15T13:20:39;17.88;;;11.50;;
43835;SDS011;39345;43.964;25.340;2023-02-15T13:23:19;19.33;;;11.63;;
43835;SDS011;39345;43.964;25.340;2023-02-15T13:25:48;19.10;;;11.05;;
43835;SDS011;39345;43.964;25.340;2023-02-15T13:28:17;20.23;;;10.63;;
43835;SDS011;39345;43.964;25.340;2023-02-15T13:30:46;15.88;;;10.45;;
43835;SDS011;39345;43.964;25.340;2023-02-15T13:36:07;17.98;;;10.40;;
43835;SDS011;39345;43.964;25.340;2023-02-15T13:38:43;17.13;;;11.00;;
43835;SDS011;39345;43.964;25.340;2023-02-15T13:41:22;25.17;;;10.95;;
43835;SDS011;39345;43.964;25.340;2023-02-15T13:44:03;17.25;;;10.50;;
43835;SDS011;39345;43.964;25.340;2023-02-15T13:54:22;15.30;;;9.65;;
43835;SDS011;39345;43.964;25.340;2023-02-15T14:07:19;18.45;;;10.43;;
43835;SDS011;39345;43.964;25.340;2023-02-15T14:12:32;15.13;;;9.43;;
43835;SDS011;39345;43.964;25.340;2023-02-15T14:20:39;14.68;;;9.65;;
43835;SDS011;39345;43.964;25.340;2023-02-15T14:29:02;17.92;;;10.25;;
43835;SDS011;39345;43.964;25.340;2023-02-15T14:31:18;16.55;;;9.88;;
43835;SDS011;39345;43.964;25.340;2023-02-15T14:33:57;17.42;;;10.52;;
43835;SDS011;39345;43.964;25.340;2023-02-15T14:36:25;14.88;;;9.50;;
43835;SDS011;39345;43.964;25.340;2023-02-15T14:41:29;18.20;;;10.30;;
43835;SDS011;39345;43.964;25.340;2023-02-15T14:44:13;14.40;;;8.65;;
43835;SDS011;39345;43.964;25.340;2023-02-15T14:47:00;13.10;;;8.18;;
43835;SDS011;39345;43.964;25.340;2023-02-15T14:49:32;13.32;;;8.63;;
43835;SDS011;39345;43.964;25.340;2023-02-15T14:52:03;15.60;;;8.98;;
43835;SDS011;39345;43.964;25.340;2023-02-15T14:59:38;14.27;;;8.68;;
43835;SDS011;39345;43.964;25.340;2023-02-15T15:09:40;15.82;;;9.13;;
43835;SDS011;39345;43.964;25.340;2023-02-15T15:14:48;18.40;;;11.00;;
43835;SDS011;39345;43.964;25.340;2023-02-15T15:20:00;22.90;;;13.05;;
43835;SDS011;39345;43.964;25.340;2023-02-15T15:22:30;21.17;;;12.95;;
43835;SDS011;39345;43.964;25.340;2023-02-15T15:25:01;24.60;;;11.50;;
43835;SDS011;39345;43.964;25.340;2023-02-15T15:50:24;18.38;;;10.90;;
43835;SDS011;39345;43.964;25.340;2023-02-15T15:52:53;20.98;;;11.73;;
43835;SDS011;39345;43.964;25.340;2023-02-15T15:55:21;19.38;;;11.98;;
43835;SDS011;39345;43.964;25.340;2023-02-15T15:57:50;19.58;;;11.35;;
43835;SDS011;39345;43.964;25.340;2023-02-15T16:03:05;24.17;;;11.68;;
43835;SDS011;39345;43.964;25.340;2023-02-15T16:05:36;17.85;;;11.07;;
43835;SDS011;39345;43.964;25.340;2023-02-15T16:08:05;21.15;;;11.68;;
43835;SDS011;39345;43.964;25.340;2023-02-15T16:10:33;23.00;;;12.55;;
43835;SDS011;39345;43.964;25.340;2023-02-15T16:13:05;21.02;;;13.38;;
43835;SDS011;39345;43.964;25.340;2023-02-15T16:15:35;31.05;;;15.57;;
43835;SDS011;39345;43.964;25.340;2023-02-15T16:18:03;29.40;;;16.67;;
43835;SDS011;39345;43.964;25.340;2023-02-15T16:20:31;35.95;;;19.15;;
43835;SDS011;39345;43.964;25.340;2023-02-15T16:28:07;34.13;;;20.38;;
43835;SDS011;39345;43.964;25.340;2023-02-15T16:30:36;29.05;;;17.38;;
43835;SDS011;39345;43.964;25.340;2023-02-15T16:33:07;24.10;;;14.52;;
43835;SDS011;39345;43.964;25.340;2023-02-15T16:35:36;22.50;;;13.13;;
43835;SDS011;39345;43.964;25.340;2023-02-15T16:38:03;20.10;;;12.80;;
43835;SDS011;39345;43.964;25.340;2023-02-15T16:40:39;27.20;;;13.05;;
43835;SDS011;39345;43.964;25.340;2023-02-15T16:43:12;22.42;;;13.93;;
43835;SDS011;39345;43.964;25.340;2023-02-15T16:45:41;23.80;;;13.80;;
43835;SDS011;39345;43.964;25.340;2023-02-15T16:48:12;24.10;;;14.63;;
43835;SDS011;39345;43.964;25.340;2023-02-15T16:50:40;27.60;;;15.20;;
43835;SDS011;39345;43.964;25.340;2023-02-15T16:53:14;24.75;;;15.07;;
43835;SDS011;39345;43.964;25.340;2023-02-15T16:55:44;27.35;;;15.40;;
43835;SDS011;39345;43.964;25.340;2023-02-15T16:58:15;28.70;;;16.30;;
43835;SDS011;39345;43.964;25.340;2023-02-15T17:00:44;38.30;;;19.90;;
43835;SDS011;39345;43.964;25.340;2023-02-15T17:13:27;42.00;;;23.23;;
43835;SDS011;39345;43.964;25.340;2023-02-15T17:18:27;26.00;;;14.95;;
43835;SDS011;39345;43.964;25.340;2023-02-15T17:20:56;25.63;;;14.05;;
43835;SDS011;39345;43.964;25.340;2023-02-15T17:26:37;26.10;;;14.18;;
43835;SDS011;39345;43.964;25.340;2023-02-15T17:28:59;25.05;;;14.32;;
43835;SDS011;39345;43.964;25.340;2023-02-15T17:31:30;28.33;;;15.32;;
43835;SDS011;39345;43.964;25.340;2023-02-15T17:33:59;28.58;;;15.73;;
43835;SDS011;39345;43.964;25.340;2023-02-15T17:36:27;49.50;;;26.02;;
43835;SDS011;39345;43.964;25.340;2023-02-15T17:41:30;83.43;;;46.58;;
43835;SDS011;39345;43.964;25.340;2023-02-15T17:43:57;233.82;;;94.75;;
43835;SDS011;39345;43.964;25.340;2023-02-15T17:46:25;195.18;;;88.93;;
43835;SDS011;39345;43.964;25.340;2023-02-15T17:48:54;142.63;;;63.38;;
43835;SDS011;39345;43.964;25.340;2023-02-15T17:51:22;97.88;;;46.88;;
43835;SDS011;39345;43.964;25.340;2023-02-15T17:53:50;123.47;;;54.90;;
43835;SDS011;39345;43.964;25.340;2023-02-15T17:56:37;71.45;;;35.97;;
43835;SDS011;39345;43.964;25.340;2023-02-15T17:59:05;61.38;;;33.78;;
43835;SDS011;39345;43.964;25.340;2023-02-15T18:01:33;75.18;;;38.47;;
43835;SDS011;39345;43.964;25.340;2023-02-15T18:04:20;53.83;;;27.30;;
43835;SDS011;39345;43.964;25.340;2023-02-15T18:07:10;36.63;;;20.58;;
43835;SDS011;39345;43.964;25.340;2023-02-15T18:09:59;35.83;;;21.75;;
43835;SDS011;39345;43.964;25.340;2023-02-15T18:12:45;63.65;;;31.60;;
43835;SDS011;39345;43.964;25.340;2023-02-15T18:15:13;85.43;;;39.88;;
43835;SDS011;39345;43.964;25.340;2023-02-15T18:17:41;60.05;;;33.35;;
43835;SDS011;39345;43.964;25.340;2023-02-15T18:22:45;73.37;;;42.67;;
43835;SDS011;39345;43.964;25.340;2023-02-15T18:25:16;77.05;;;43.70;;
43835;SDS011;39345;43.964;25.340;2023-02-15T18:27:44;107.35;;;60.70;;
43835;SDS011;39345;43.964;25.340;2023-02-15T18:30:15;99.55;;;55.22;;
43835;SDS011;39345;43.964;25.340;2023-02-15T18:32:44;95.53;;;50.85;;